createdAt,value
2023-06-07T00:01:57.471Z,2.85
2023-06-07T00:06:03.911Z,2.70
2023-06-07T00:10:08.198Z,2.75
2023-06-07T00:14:12.836Z,2.50
2023-06-07T00:18:16.566Z,2.65
2023-06-07T00:22:19.770Z,2.65
2023-06-07T00:26:22.790Z,3.05
2023-06-07T00:30:27.292Z,2.83
2023-06-07T00:34:30.543Z,2.70
2023-06-07T00:38:33.707Z,3.05
2023-06-07T00:42:36.979Z,2.38
2023-06-07T00:46:41.415Z,2.88
2023-06-07T00:50:44.642Z,2.42
2023-06-07T00:54:47.652Z,2.42
2023-06-07T00:58:50.865Z,2.70
2023-06-07T01:02:56.978Z,2.60
2023-06-07T01:07:02.936Z,3.20
2023-06-07T01:11:06.595Z,2.60
2023-06-07T01:19:22.502Z,2.65
2023-06-07T01:23:32.847Z,2.95
2023-06-07T01:27:38.394Z,2.55
2023-06-07T01:31:42.375Z,2.88
2023-06-07T01:35:47.185Z,2.95
2023-06-07T01:39:52.964Z,2.40
2023-06-07T01:43:56.019Z,2.90
2023-06-07T01:47:59.300Z,2.65
2023-06-07T01:52:02.662Z,2.65
2023-06-07T01:56:16.245Z,2.33
2023-06-07T02:00:26.038Z,2.55
2023-06-07T02:04:31.265Z,2.40
2023-06-07T02:08:36.334Z,2.53
2023-06-07T02:12:42.044Z,2.60
2023-06-07T02:16:45.064Z,3.20
2023-06-07T02:20:48.323Z,2.95
2023-06-07T02:24:51.452Z,2.67
2023-06-07T02:28:56.188Z,2.63
2023-06-07T02:32:59.348Z,2.47
2023-06-07T02:37:02.772Z,2.53
2023-06-07T02:41:05.696Z,2.83
2023-06-07T02:45:11.544Z,2.92
2023-06-07T02:49:14.736Z,2.80
2023-06-07T02:53:17.786Z,3.15
2023-06-07T02:57:20.879Z,3.17
2023-06-07T03:01:29.007Z,2.90
2023-06-07T03:05:32.472Z,2.80
2023-06-07T03:09:35.523Z,3.05
2023-06-07T03:13:38.635Z,3.10
2023-06-07T03:17:44.488Z,2.70
2023-06-07T03:21:47.612Z,2.95
2023-06-07T03:25:50.893Z,2.80
2023-06-07T03:29:55.198Z,3.10
2023-06-07T03:33:59.804Z,2.95
2023-06-07T03:38:02.751Z,2.72
2023-06-07T03:42:06.777Z,3.35
2023-06-07T03:46:09.957Z,2.83
2023-06-07T03:50:14.593Z,3.17
2023-06-07T03:54:17.545Z,2.70
2023-06-07T03:58:20.618Z,3.05
2023-06-07T04:02:23.677Z,2.90
2023-06-07T04:06:30.156Z,3.13
2023-06-07T04:10:33.172Z,2.90
2023-06-07T04:14:36.314Z,3.60
2023-06-07T04:18:39.707Z,2.88
2023-06-07T04:22:44.123Z,3.03
2023-06-07T04:26:49.425Z,3.17
2023-06-07T04:30:53.176Z,3.25
2023-06-07T04:34:57.386Z,3.70
2023-06-07T04:39:02.762Z,2.92
2023-06-07T04:43:06.959Z,3.03
2023-06-07T04:47:13.325Z,2.88
2023-06-07T04:51:21.861Z,3.20
2023-06-07T04:55:26.816Z,3.50
2023-06-07T04:59:36.404Z,2.97
2023-06-07T05:04:08.877Z,3.42
2023-06-07T05:08:12.000Z,3.20
2023-06-07T05:12:16.610Z,3.28
2023-06-07T05:16:20.356Z,4.30
2023-06-07T05:20:26.318Z,3.88
2023-06-07T05:24:30.420Z,4.03
2023-06-07T05:28:34.945Z,4.18
2023-06-07T05:32:38.890Z,3.58
2023-06-07T05:36:41.872Z,3.65
2023-06-07T05:40:45.674Z,3.53
2023-06-07T05:44:51.134Z,3.85
2023-06-07T05:48:54.029Z,3.90
2023-06-07T05:52:58.799Z,3.72
2023-06-07T05:57:02.561Z,3.92
2023-06-07T06:01:08.483Z,3.83
2023-06-07T06:05:11.723Z,3.80
2023-06-07T06:09:14.778Z,4.15
2023-06-07T06:13:17.955Z,3.85
2023-06-07T06:17:22.378Z,3.45
2023-06-07T06:21:25.649Z,3.47
2023-06-07T06:25:29.971Z,3.42
2023-06-07T06:29:32.745Z,3.55
2023-06-07T06:33:37.575Z,3.45
2023-06-07T06:37:41.013Z,3.22
2023-06-07T06:41:44.092Z,3.83
2023-06-07T06:45:48.223Z,2.53
2023-06-07T06:49:54.742Z,3.60
2023-06-07T06:53:57.707Z,3.45
2023-06-07T06:58:01.591Z,3.38
2023-06-07T07:02:05.023Z,2.70
2023-06-07T07:06:13.666Z,2.53
2023-06-07T07:10:18.040Z,2.38
2023-06-07T07:14:21.034Z,3.03
2023-06-07T07:18:24.161Z,2.30
2023-06-07T07:22:29.228Z,2.60
2023-06-07T07:26:32.332Z,2.65
2023-06-07T07:30:36.431Z,2.50
2023-06-07T07:34:41.786Z,2.40
2023-06-07T07:38:47.469Z,2.50
2023-06-07T07:42:51.066Z,2.78
2023-06-07T07:46:54.005Z,2.40
2023-06-07T07:50:57.643Z,2.60
2023-06-07T07:55:04.083Z,2.65
2023-06-07T07:59:07.376Z,2.38
2023-06-07T08:03:10.609Z,2.58
2023-06-07T08:07:16.604Z,2.45
2023-06-07T08:11:22.231Z,3.05
2023-06-07T08:15:25.214Z,2.63
2023-06-07T08:19:28.633Z,2.38
2023-06-07T08:23:31.537Z,2.80
2023-06-07T08:27:35.859Z,2.83
2023-06-07T08:31:44.669Z,2.75
2023-06-07T08:35:47.973Z,2.67
2023-06-07T08:39:50.897Z,2.92
2023-06-07T08:43:55.190Z,2.40
2023-06-07T08:47:59.660Z,2.97
2023-06-07T08:52:15.337Z,2.70
2023-06-07T08:56:20.322Z,2.40
2023-06-07T09:00:25.500Z,3.00
2023-06-07T09:04:29.086Z,2.70
2023-06-07T09:08:32.173Z,3.00
2023-06-07T09:12:35.178Z,2.53
2023-06-07T09:16:56.494Z,2.30
2023-06-07T09:20:59.709Z,2.70
2023-06-07T09:25:09.069Z,2.38
2023-06-07T09:29:13.128Z,3.00
2023-06-07T09:33:27.536Z,2.85
2023-06-07T09:37:42.876Z,2.67
2023-06-07T09:41:45.749Z,2.60
2023-06-07T09:45:55.361Z,2.70
2023-06-07T09:50:14.108Z,2.60
2023-06-07T09:54:17.498Z,2.40
2023-06-07T09:58:22.240Z,2.85
2023-06-07T10:02:26.494Z,2.35
2023-06-07T10:06:32.119Z,2.60
2023-06-07T10:10:36.273Z,2.40
2023-06-07T10:14:41.511Z,2.30
2023-06-07T10:18:45.077Z,2.55
2023-06-07T10:22:50.068Z,2.60
2023-06-07T10:26:56.199Z,2.65
2023-06-07T10:31:07.385Z,2.05
2023-06-07T10:35:14.529Z,2.40
2023-06-07T10:39:20.234Z,2.70
2023-06-07T10:43:23.084Z,2.80
2023-06-07T10:47:27.726Z,2.75
2023-06-07T10:52:03.107Z,2.40
2023-06-07T10:56:38.234Z,2.30
2023-06-07T11:00:44.104Z,2.58
2023-06-07T11:04:58.349Z,2.80
2023-06-07T11:09:23.543Z,3.00
2023-06-07T11:13:26.450Z,2.58
2023-06-07T11:17:52.629Z,2.90
2023-06-07T11:22:05.650Z,2.90
2023-06-07T11:26:10.878Z,2.95
2023-06-07T11:30:14.549Z,2.63
2023-06-07T11:34:18.870Z,2.92
2023-06-07T11:38:22.668Z,3.05
2023-06-07T11:42:26.519Z,3.05
2023-06-07T11:46:33.921Z,3.10
2023-06-07T11:50:39.576Z,3.20
2023-06-07T11:54:44.558Z,2.97
2023-06-07T11:59:07.785Z,3.30
2023-06-07T12:03:11.883Z,3.40
2023-06-07T12:07:23.554Z,2.97
2023-06-07T12:11:27.401Z,3.00
2023-06-07T12:15:31.891Z,3.25
2023-06-07T12:19:35.084Z,3.20
2023-06-07T12:23:40.894Z,3.13
2023-06-07T12:27:46.608Z,3.15
2023-06-07T12:31:53.381Z,3.00
2023-06-07T12:35:58.933Z,3.13
2023-06-07T12:40:03.566Z,3.13
2023-06-07T12:44:08.764Z,3.28
2023-06-07T12:48:12.634Z,3.35
2023-06-07T12:52:16.100Z,2.53
2023-06-07T12:56:20.843Z,2.75
2023-06-07T13:00:24.713Z,2.97
2023-06-07T13:04:30.772Z,3.10
2023-06-07T13:08:33.988Z,2.95
2023-06-07T13:12:39.004Z,2.85
2023-06-07T13:16:42.099Z,2.75
2023-06-07T13:20:52.812Z,3.00
2023-06-07T13:24:56.838Z,2.72
2023-06-07T13:29:01.796Z,2.75
2023-06-07T13:33:05.114Z,2.80
2023-06-07T13:37:14.943Z,2.67
2023-06-07T13:41:17.836Z,2.95
2023-06-07T13:45:22.290Z,2.88
2023-06-07T13:49:25.067Z,3.00
2023-06-07T13:53:31.143Z,3.00
2023-06-07T13:57:37.008Z,2.90
2023-06-07T14:01:41.869Z,3.05
2023-06-07T14:05:55.022Z,3.22
2023-06-07T14:09:57.886Z,3.15
2023-06-07T14:14:01.372Z,2.97
2023-06-07T14:18:06.551Z,3.53
2023-06-07T14:22:09.970Z,3.20
2023-06-07T14:26:12.967Z,3.03
2023-06-07T14:30:17.769Z,2.78
2023-06-07T14:34:21.977Z,2.63
2023-06-07T14:38:25.794Z,2.67
2023-06-07T14:42:28.739Z,2.90
2023-06-07T14:46:32.067Z,2.80
2023-06-07T14:50:36.967Z,2.78
2023-06-07T14:54:41.311Z,2.67
2023-06-07T14:58:45.410Z,3.15
2023-06-07T15:02:48.624Z,3.03
2023-06-07T15:06:53.191Z,3.10
2023-06-07T15:10:59.262Z,2.72
2023-06-07T15:15:02.777Z,2.60
2023-06-07T15:19:05.714Z,2.75
2023-06-07T15:23:10.387Z,2.65
2023-06-07T15:27:13.528Z,2.53
2023-06-07T15:31:16.532Z,2.80
2023-06-07T15:35:19.457Z,2.83
2023-06-07T15:39:24.392Z,2.30
2023-06-07T15:43:27.363Z,2.47
2023-06-07T15:47:33.137Z,2.40
2023-06-07T15:51:36.112Z,2.67
2023-06-07T15:55:42.963Z,2.80
2023-06-07T15:59:46.012Z,2.80
2023-06-07T16:03:56.749Z,2.40
2023-06-07T16:08:04.690Z,2.88
2023-06-07T16:12:13.735Z,2.50
2023-06-07T16:16:22.100Z,2.47
2023-06-07T16:20:28.607Z,2.60
2023-06-07T16:24:31.502Z,2.50
2023-06-07T16:28:36.170Z,2.70
2023-06-07T16:32:39.756Z,2.72
2023-06-07T16:36:58.208Z,2.65
2023-06-07T16:41:01.146Z,2.97
2023-06-07T16:45:06.824Z,2.80
2023-06-07T16:49:17.596Z,2.70
2023-06-07T16:53:20.616Z,2.67
2023-06-07T16:57:26.083Z,2.78
2023-06-07T17:01:32.249Z,2.60
2023-06-07T17:05:37.475Z,2.55
2023-06-07T17:09:40.489Z,2.72
2023-06-07T17:13:45.048Z,2.25
2023-06-07T17:17:49.725Z,2.70
2023-06-07T17:21:52.947Z,2.97
2023-06-07T17:25:55.936Z,2.58
2023-06-07T17:30:00.406Z,2.83
2023-06-07T17:34:12.794Z,2.72
2023-06-07T17:38:17.749Z,2.70
2023-06-07T17:42:22.535Z,2.85
2023-06-07T17:46:26.369Z,2.88
2023-06-07T17:50:45.382Z,2.80
2023-06-07T17:54:49.081Z,3.63
2023-06-07T17:58:52.560Z,4.70
2023-06-07T18:02:56.185Z,2.90
2023-06-07T18:07:03.819Z,3.30
2023-06-07T18:11:08.422Z,3.53
2023-06-07T18:15:11.939Z,3.40
2023-06-07T18:19:14.957Z,3.25
2023-06-07T18:23:20.694Z,3.45
2023-06-07T18:27:24.122Z,3.40
2023-06-07T18:31:26.908Z,2.97
2023-06-07T18:35:29.945Z,2.95
2023-06-07T18:39:35.182Z,3.40
2023-06-07T18:43:40.356Z,3.47
2023-06-07T18:47:43.184Z,4.32
2023-06-07T18:55:50.022Z,4.30
2023-06-07T18:59:52.712Z,4.82
2023-06-07T19:03:58.711Z,5.30
2023-06-07T19:08:01.884Z,5.20
2023-06-07T19:12:07.886Z,5.13
2023-06-07T19:16:10.753Z,5.35
2023-06-07T19:20:14.815Z,5.65
2023-06-07T19:24:17.648Z,5.40
2023-06-07T19:28:21.833Z,5.88
2023-06-07T19:32:24.593Z,5.80
2023-06-07T19:36:31.301Z,6.05
2023-06-07T19:40:35.659Z,6.10
2023-06-07T19:44:41.129Z,6.35
2023-06-07T19:48:46.949Z,6.78
2023-06-07T19:52:49.773Z,6.40
2023-06-07T19:56:52.494Z,5.97
2023-06-07T20:00:57.026Z,6.50
2023-06-07T20:05:00.478Z,6.00
2023-06-07T20:09:03.270Z,6.82
2023-06-07T20:13:06.245Z,7.07
2023-06-07T20:21:13.904Z,7.05
2023-06-07T20:25:17.656Z,7.10
2023-06-07T20:29:20.657Z,7.30
2023-06-07T20:37:27.712Z,7.15
2023-06-07T20:41:30.607Z,6.95
2023-06-07T20:45:33.486Z,7.55
2023-06-07T20:49:37.707Z,6.90
2023-06-07T20:53:40.397Z,7.20
2023-06-07T20:57:43.152Z,6.43
2023-06-07T21:01:45.932Z,6.82
2023-06-07T21:05:50.161Z,7.15
2023-06-07T21:09:52.854Z,7.85
2023-06-07T21:13:55.628Z,6.35
2023-06-07T21:17:58.391Z,7.32
2023-06-07T21:22:02.630Z,6.28
2023-06-07T21:26:06.883Z,6.10
2023-06-07T21:30:10.327Z,6.63
2023-06-07T21:34:14.100Z,6.97
2023-06-07T21:38:18.482Z,6.55
2023-06-07T21:42:22.186Z,7.05
2023-06-07T21:46:28.031Z,6.53
2023-06-07T21:50:31.143Z,7.00
2023-06-07T21:54:43.594Z,6.68
2023-06-07T21:58:46.710Z,7.80
2023-06-07T22:06:52.399Z,8.25
2023-06-07T22:10:57.137Z,8.15
2023-06-07T22:15:01.797Z,8.10
2023-06-07T22:19:04.690Z,7.53
2023-06-07T22:23:08.587Z,9.07
2023-06-07T22:27:13.294Z,7.00
2023-06-07T22:31:16.708Z,7.63
2023-06-07T22:35:19.875Z,7.68
2023-06-07T22:39:22.704Z,7.35
2023-06-07T22:43:26.842Z,7.10
2023-06-07T22:47:31.125Z,6.72
2023-06-07T22:51:35.471Z,6.43
2023-06-07T22:55:38.600Z,6.72
2023-06-07T22:59:43.499Z,7.00
2023-06-07T23:03:46.552Z,5.85
2023-06-07T23:07:50.638Z,6.10
2023-06-07T23:11:54.104Z,6.50
2023-06-07T23:15:58.530Z,7.47
2023-06-07T23:20:01.572Z,6.57
2023-06-07T23:24:05.939Z,6.35
2023-06-07T23:28:08.826Z,6.88
2023-06-07T23:32:13.364Z,6.65
2023-06-07T23:36:17.518Z,8.23
2023-06-07T23:40:20.629Z,6.60
2023-06-07T23:44:27.390Z,6.43
2023-06-07T23:48:32.311Z,6.28
2023-06-07T23:52:36.159Z,6.35
2023-06-07T23:56:39.656Z,6.65
